Flight Track Log - Related Links

Times and Time Zones

All times are in EDT time to prevent confusion due to time zone crossing. See the RPA3228 flight status page for this flight to view local times or setup timezone preferences in your user account.

Time Position Orientation Groundspeed Altitude Reporting Facility
EDT Latitude Longitude Course Direction KTS MPH feet Rate Location/Type
Sat 08:09:00 AM 34.8300 -86.3066 59° Northeast  Level FlightAware Approximate
Sat 08:10:00 AM 34.8498 -86.1349 83° East  Level FlightAware Approximate
Sat 08:10:53 AM 34.7231 -86.5367 84° East 297 342 8,800  Level Memphis Center
Sat 08:11:00 AM 34.8608 -85.9613 86° East  Level FlightAware Approximate
Sat 08:11:53 AM 34.7683 -86.4486 58° Northeast 308 354 10,700  Level Memphis Center
Sat 08:12:00 AM 34.8850 -85.7915 85° East  Level FlightAware Approximate
Sat 08:12:53 AM 34.8172 -86.3478 59° Northeast 321 369 12,700  Level Memphis Center
Sat 08:13:00 AM 34.8941 -85.6558 85° East  Level FlightAware Approximate
Sat 08:13:53 AM 34.8428 -86.2303 75° East 334 384 14,800  Level Memphis Center
Sat 08:14:00 AM 34.9058 -85.5205 81° East  Level FlightAware Approximate
Sat 08:14:53 AM 34.8592 -86.0978 81° East 363 418 16,700  Level Memphis Center
Sat 08:15:00 AM 34.9245 -85.3862 78° East  Level FlightAware Approximate
Sat 08:15:53 AM 34.8711 -85.9631 84° East 386 444 18,200  Level Memphis Center
Sat 08:16:00 AM 34.9408 -85.2516 84° East  Level FlightAware Approximate
Sat 08:16:17 AM 34.8819 -85.9100 76° East 390 449 18,900  Level Atlanta Center
Sat 08:17:17 AM 34.8944 -85.7761 83° East 401 461 20,500 1,600 Climbing Atlanta Center
Sat 08:18:17 AM 34.9108 -85.6319 82° East 412 474 22,100 1,250 Climbing Atlanta Center
Sat 08:19:17 AM 34.9253 -85.4903 83° East 420 483 23,000 1,050 Climbing Atlanta Center
Sat 08:20:17 AM 34.9414 -85.3411 82° East 430 495 24,200 1,250 Climbing Atlanta Center
Sat 08:21:17 AM 34.9556 -85.1944 83° East 430 495 25,500 1,350 Climbing Atlanta Center
Sat 08:22:17 AM 34.9861 -85.0478 76° East 430 495 26,900 1,250 Climbing Atlanta Center
Sat 08:23:17 AM 35.0183 -84.8986 75° East 440 506 28,000 1,100 Climbing Atlanta Center
Sat 08:24:17 AM 35.0550 -84.7442 74° East 451 519 29,100 1,000 Climbing Atlanta Center
Sat 08:25:17 AM 35.0911 -84.5844 75° East 463 533 30,000 900 Climbing Atlanta Center
Sat 08:26:17 AM 35.1294 -84.4222 74° East 476 548 30,900 950 Climbing Atlanta Center
Sat 08:27:17 AM 35.1653 -84.2572 75° East 486 559 31,900 900 Climbing Atlanta Center
Sat 08:28:17 AM 35.2031 -84.0894 75° East 492 566 32,700 1,000 Climbing Atlanta Center
Sat 08:29:17 AM 35.2467 -83.8989 74° East 511 588 33,900 1,050 Climbing Atlanta Center
Sat 08:30:17 AM 35.2839 -83.7258 75° East 511 588 34,800 550 Climbing Atlanta Center
Sat 08:31:17 AM 35.3208 -83.5550 75° East 511 588 35,000 100 Climbing Atlanta Center
Sat 08:32:17 AM 35.3619 -83.3792 74° East 516 594 35,000  Level Atlanta Center
Sat 08:33:17 AM 35.3922 -83.2208 77° East 521 600 35,000  Level Atlanta Center
Sat 08:34:17 AM 35.4306 -83.0447 75° East 530 610 35,000  Level Atlanta Center
Sat 08:35:17 AM 35.4686 -82.8658 75° East 535 616 35,000  Level Atlanta Center
Sat 08:36:17 AM 35.5044 -82.6917 76° East 529 609 35,000  Level Atlanta Center
Sat 08:37:17 AM 35.5522 -82.5019 73° East 529 609 35,000  Level Atlanta Center
Sat 08:38:17 AM 35.5853 -82.3228 77° East 529 609 35,000  Level Atlanta Center
Sat 08:39:17 AM 35.6222 -82.1431 76° East 529 609 35,000  Level Atlanta Center
Sat 08:40:17 AM 35.6611 -81.9708 74° East 534 615 35,000  Level Atlanta Center
Sat 08:41:17 AM 35.6956 -81.7936 76° East 527 606 35,000  Level Atlanta Center
Sat 08:42:17 AM 35.7297 -81.6161 77° East 532 612 35,000  Level Atlanta Center
Sat 08:43:17 AM 35.7642 -81.4539 75° East 532 612 35,000  Level Atlanta Center
Sat 08:44:17 AM 35.8019 -81.2761 75° East 532 612 35,000  Level Atlanta Center
Sat 08:45:17 AM 35.8331 -81.0931 78° East 532 612 35,000 -50 Level Atlanta Center
Sat 08:46:17 AM 35.8700 -80.8997 77° East 532 612 34,900 -950 Descending Atlanta Center
Sat 08:47:17 AM 35.9050 -80.7189 77° East 532 612 33,100 -564 Descending Atlanta Center
Sat 08:49:39 AM 35.9867 -80.2897 77° East 545 627 33,000 -30 Descending Washington Center
Sat 08:50:39 AM 36.0186 -80.1067 78° East 537 618 33,000  Level Washington Center
Sat 08:51:39 AM 36.0619 -79.9525 71° East 539 620 33,000  Level Washington Center
Sat 08:52:39 AM 36.1489 -79.7978 55° Northeast 533 613 33,000 100 Level Washington Center
Sat 08:53:39 AM 36.2378 -79.6378 55° Northeast 546 628 33,200  Climbing Washington Center
Sat 08:54:39 AM 36.3200 -79.4925 55° Northeast 535 616 33,000 -100 Descending Washington Center
Sat 08:55:39 AM 36.3975 -79.3544 55° Northeast 508 585 33,000 -150 Level Washington Center
Sat 08:56:39 AM 36.4483 -79.1864 69° East 469 540 32,700 -800 Descending Washington Center
Sat 08:57:39 AM 36.4881 -79.0511 70° East 464 534 31,400 -1,328 Descending Washington Center
Sat 08:58:41 AM 36.5339 -78.9008 69° East 464 534 30,000 -1,500 Descending Washington Center
Sat 08:59:39 AM 36.6147 -78.7644 54° Northeast 472 543 28,400 -1,627 Descending Washington Center
Sat 09:00:39 AM 36.6997 -78.6256 53° Northeast 487 560 26,800 -1,550 Descending Washington Center
Sat 09:01:39 AM 36.7822 -78.4964 51° Northeast 487 560 25,300 -900 Descending Washington Center
Sat 09:02:39 AM 36.8669 -78.3569 53° Northeast 474 545 25,000 -150 Descending Washington Center
Sat 09:03:39 AM 36.9489 -78.2325 50° Northeast 460 529 25,000  Level Washington Center
Sat 09:04:39 AM 37.0617 -78.1347 35° Northeast 475 547 25,000  Level Washington Center
Sat 09:05:39 AM 37.1806 -78.0422 32° Northeast 487 560 25,000  Level Washington Center
Sat 09:06:39 AM 37.2992 -77.9519 31° Northeast 492 566 25,000  Level Washington Center
Sat 09:07:39 AM 37.4156 -77.8564 33° Northeast 497 572 25,000  Level Washington Center
Sat 09:08:39 AM 37.5364 -77.7631 31° Northeast 502 578 25,000 -400 Level Washington Center
Sat 09:09:39 AM 37.6569 -77.6694 32° Northeast 502 578 24,200 -1,700 Descending Washington Center
Sat 09:10:39 AM 37.7711 -77.5753 33° Northeast 502 578 21,600 -2,600 Descending Washington Center
Sat 09:11:39 AM 37.8850 -77.4861 32° Northeast 497 572 19,000 -2,450 Descending Washington Center
Sat 09:12:39 AM 37.9886 -77.3992 33° Northeast 477 549 16,700 -2,250 Descending Washington Center
Sat 09:13:39 AM 38.0856 -77.3275 30° Northeast 443 510 14,500 -2,200 Descending Washington Center
Sat 09:14:39 AM 38.1783 -77.2558 31° Northeast 405 466 12,300 -2,100 Descending Washington Center
Sat 09:15:39 AM 38.2669 -77.1811 34° Northeast 388 447 10,300 -1,150 Descending Washington Center
Sat 09:16:39 AM 38.3531 -77.1325 24° Northeast 358 412 10,000 -550 Descending Washington Center
Sat 09:17:39 AM 38.4389 -77.1053 14° North 331 381 9,200 -1,100 Descending Washington Center
Sat 09:18:39 AM 38.5186 -77.0778 15° North 311 358 7,800 -1,400 Descending Washington Center
Sat 09:19:39 AM 38.5875 -77.0550 14° North 278 320 6,400 -1,650 Descending Washington Center
Sat 09:20:39 AM 38.6442 -77.0403 11° North 237 273 4,500 -1,700 Descending Washington Center
Sat 09:21:39 AM 38.7025 -77.0389 North 213 245 3,000 -1,500 Descending Washington Center

Login

Don't have an account? Register now (free) for customized features, flight alerts, and more!